Terminal Aerodrome Forecast
Issued by NWS

Home | Current Version | Previous Version | Text Only | Print | Product List | Glossary On
Versions: 1 2 3 4 5 6 7 8 9 10 11 12 13 14 15 16 17 18
000
FTUS44 KLIX 242336
TAFMCB
TAF
KMCB 242336Z 2500/2524 VRB04KT P6SM VCTS SCT035CB BKN080
      TEMPO 2502/2505 VRB20G35KT 2SM TSRA BKN020CB
     FM250500 15005KT P6SM BKN035
     FM251200 15006KT P6SM BKN015
     FM251500 15008KT P6SM VCSH BKN025
     FM251800 14009KT P6SM VCTS BKN035CB=

USA.gov is the U.S. government's official web portal to all federal, state and local government web resources and services.